Terminal Aerodrome Forecast
Issued by NWS Tuscon, AZ

Home | Current Version | Previous Version | Text Only | Print | Product List | Glossary On
Versions: 1 2 3 4 5 6 7 8 9 10 11 12 13 14
000
FTUS45 KTWC 231730
TAFDUG
TAF
KDUG 231730Z 2318/2418 16010KT P6SM SKC
     FM231900 23014G22KT P6SM FEW250
     FM240300 28008KT P6SM SCT250
     FM240900 15006KT P6SM SCT250
     FM241500 19014G22KT P6SM FEW250=

USA.gov is the U.S. government's official web portal to all federal, state and local government web resources and services.